sensor_id;sensor_type;location;lat;lon;timestamp;P1;durP1;ratioP1;P2;durP2;ratioP2
63818;SDS011;49970;54.976;73.248;2023-04-01T00:01:41;33.22;;;11.63;;
63818;SDS011;49970;54.976;73.248;2023-04-01T00:04:07;48.80;;;14.02;;
63818;SDS011;49970;54.976;73.248;2023-04-01T00:06:33;26.67;;;14.40;;
63818;SDS011;49970;54.976;73.248;2023-04-01T00:09:00;34.80;;;14.32;;
63818;SDS011;49970;54.976;73.248;2023-04-01T00:11:26;45.00;;;21.17;;
63818;SDS011;49970;54.976;73.248;2023-04-01T00:13:58;67.40;;;29.35;;
63818;SDS011;49970;54.976;73.248;2023-04-01T00:16:24;78.43;;;34.42;;
63818;SDS011;49970;54.976;73.248;2023-04-01T00:18:51;79.88;;;31.38;;
63818;SDS011;49970;54.976;73.248;2023-04-01T00:21:18;71.70;;;29.33;;
63818;SDS011;49970;54.976;73.248;2023-04-01T00:23:46;73.40;;;34.13;;
63818;SDS011;49970;54.976;73.248;2023-04-01T00:26:22;96.80;;;39.47;;
63818;SDS011;49970;54.976;73.248;2023-04-01T00:29:00;84.30;;;38.10;;
63818;SDS011;49970;54.976;73.248;2023-04-01T00:31:26;85.60;;;37.42;;
63818;SDS011;49970;54.976;73.248;2023-04-01T00:33:53;76.78;;;34.53;;
63818;SDS011;49970;54.976;73.248;2023-04-01T00:36:20;73.57;;;33.97;;
63818;SDS011;49970;54.976;73.248;2023-04-01T00:38:47;64.15;;;29.77;;
63818;SDS011;49970;54.976;73.248;2023-04-01T00:41:14;61.63;;;27.13;;
63818;SDS011;49970;54.976;73.248;2023-04-01T00:43:48;68.35;;;25.42;;
63818;SDS011;49970;54.976;73.248;2023-04-01T00:46:16;68.53;;;24.77;;
63818;SDS011;49970;54.976;73.248;2023-04-01T00:48:50;58.17;;;25.67;;
63818;SDS011;49970;54.976;73.248;2023-04-01T00:51:25;72.60;;;27.40;;
63818;SDS011;49970;54.976;73.248;2023-04-01T00:53:54;68.90;;;25.27;;
63818;SDS011;49970;54.976;73.248;2023-04-01T00:56:55;73.60;;;31.88;;
63818;SDS011;49970;54.976;73.248;2023-04-01T00:59:32;71.88;;;27.55;;
63818;SDS011;49970;54.976;73.248;2023-04-01T01:02:02;54.42;;;25.13;;
63818;SDS011;49970;54.976;73.248;2023-04-01T01:04:32;58.40;;;24.02;;
63818;SDS011;49970;54.976;73.248;2023-04-01T01:28:36;29.63;;;15.80;;
63818;SDS011;49970;54.976;73.248;2023-04-01T01:36:13;40.10;;;17.50;;
63818;SDS011;49970;54.976;73.248;2023-04-01T01:40:07;38.55;;;19.77;;
63818;SDS011;49970;54.976;73.248;2023-04-01T01:43:57;45.20;;;22.60;;
63818;SDS011;49970;54.976;73.248;2023-04-01T01:51:45;32.67;;;15.80;;
63818;SDS011;49970;54.976;73.248;2023-04-01T01:56:01;28.27;;;13.88;;
63818;SDS011;49970;54.976;73.248;2023-04-01T01:59:55;26.15;;;13.35;;
63818;SDS011;49970;54.976;73.248;2023-04-01T02:03:45;22.17;;;10.02;;
63818;SDS011;49970;54.976;73.248;2023-04-01T02:08:02;20.48;;;9.63;;
63818;SDS011;49970;54.976;73.248;2023-04-01T02:11:53;28.52;;;9.82;;
63818;SDS011;49970;54.976;73.248;2023-04-01T02:15:44;38.20;;;8.95;;
63818;SDS011;49970;54.976;73.248;2023-04-01T02:23:47;22.95;;;7.38;;
63818;SDS011;49970;54.976;73.248;2023-04-01T02:27:40;11.15;;;5.63;;
63818;SDS011;49970;54.976;73.248;2023-04-01T02:31:30;18.20;;;6.22;;
63818;SDS011;49970;54.976;73.248;2023-04-01T02:35:45;9.32;;;5.45;;
63818;SDS011;49970;54.976;73.248;2023-04-01T02:39:37;21.15;;;6.18;;
63818;SDS011;49970;54.976;73.248;2023-04-01T02:43:34;15.73;;;5.85;;
63818;SDS011;49970;54.976;73.248;2023-04-01T02:47:22;8.35;;;5.72;;
63818;SDS011;49970;54.976;73.248;2023-04-01T02:51:12;15.07;;;6.90;;
63818;SDS011;49970;54.976;73.248;2023-04-01T02:55:28;11.35;;;6.90;;
63818;SDS011;49970;54.976;73.248;2023-04-01T02:59:19;13.07;;;7.03;;
63818;SDS011;49970;54.976;73.248;2023-04-01T03:03:09;15.13;;;6.95;;
63818;SDS011;49970;54.976;73.248;2023-04-01T03:06:59;6.78;;;3.72;;
63818;SDS011;49970;54.976;73.248;2023-04-01T03:10:49;4.07;;;3.20;;
63818;SDS011;49970;54.976;73.248;2023-04-01T03:14:38;10.40;;;3.75;;
63818;SDS011;49970;54.976;73.248;2023-04-01T03:18:28;4.20;;;2.90;;
63818;SDS011;49970;54.976;73.248;2023-04-01T03:22:23;4.22;;;2.75;;
63818;SDS011;49970;54.976;73.248;2023-04-01T03:30:09;6.60;;;1.73;;
63818;SDS011;49970;54.976;73.248;2023-04-01T03:34:06;4.80;;;1.80;;
63818;SDS011;49970;54.976;73.248;2023-04-01T03:37:58;21.33;;;2.83;;
63818;SDS011;49970;54.976;73.248;2023-04-01T03:41:55;6.57;;;2.67;;
63818;SDS011;49970;54.976;73.248;2023-04-01T03:45:45;5.15;;;2.17;;
63818;SDS011;49970;54.976;73.248;2023-04-01T08:01:41;10.48;;;3.70;;
63818;SDS011;49970;54.976;73.248;2023-04-01T08:07:27;23.13;;;3.67;;
63818;SDS011;49970;54.976;73.248;2023-04-01T08:10:34;5.13;;;2.58;;
63818;SDS011;49970;54.976;73.248;2023-04-01T08:13:40;14.65;;;3.15;;
63818;SDS011;49970;54.976;73.248;2023-04-01T08:17:54;4.22;;;1.85;;
63818;SDS011;49970;54.976;73.248;2023-04-01T08:21:25;10.20;;;2.60;;
63818;SDS011;49970;54.976;73.248;2023-04-01T08:25:42;2.15;;;1.92;;
63818;SDS011;49970;54.976;73.248;2023-04-01T08:29:36;9.68;;;2.75;;
63818;SDS011;49970;54.976;73.248;2023-04-01T08:33:31;8.77;;;3.30;;
63818;SDS011;49970;54.976;73.248;2023-04-01T08:37:24;7.90;;;2.13;;
63818;SDS011;49970;54.976;73.248;2023-04-01T09:10:47;10.60;;;2.78;;
63818;SDS011;49970;54.976;73.248;2023-04-01T09:22:37;8.50;;;2.80;;
63818;SDS011;49970;54.976;73.248;2023-04-01T09:37:52;19.15;;;6.85;;
63818;SDS011;49970;54.976;73.248;2023-04-01T09:51:52;6.23;;;2.73;;
63818;SDS011;49970;54.976;73.248;2023-04-01T11:20:07;7.38;;;3.83;;
63818;SDS011;49970;54.976;73.248;2023-04-01T11:37:41;13.52;;;3.88;;
63818;SDS011;49970;54.976;73.248;2023-04-01T11:40:36;6.03;;;4.15;;
63818;SDS011;49970;54.976;73.248;2023-04-01T11:55:35;9.57;;;4.85;;
63818;SDS011;49970;54.976;73.248;2023-04-01T11:58:34;11.68;;;5.72;;
63818;SDS011;49970;54.976;73.248;2023-04-01T12:06:44;20.60;;;12.68;;
63818;SDS011;49970;54.976;73.248;2023-04-01T12:09:29;13.18;;;8.60;;
63818;SDS011;49970;54.976;73.248;2023-04-01T12:12:18;12.27;;;5.18;;
63818;SDS011;49970;54.976;73.248;2023-04-01T12:17:56;8.45;;;4.00;;
63818;SDS011;49970;54.976;73.248;2023-04-01T12:21:17;19.58;;;4.60;;
63818;SDS011;49970;54.976;73.248;2023-04-01T12:23:54;14.23;;;5.75;;
63818;SDS011;49970;54.976;73.248;2023-04-01T12:27:23;8.13;;;3.78;;
63818;SDS011;49970;54.976;73.248;2023-04-01T12:36:01;12.38;;;7.13;;
63818;SDS011;49970;54.976;73.248;2023-04-01T12:41:30;18.73;;;8.35;;
63818;SDS011;49970;54.976;73.248;2023-04-01T12:47:17;18.08;;;7.93;;
63818;SDS011;49970;54.976;73.248;2023-04-01T12:53:10;10.52;;;5.07;;
63818;SDS011;49970;54.976;73.248;2023-04-01T12:55:50;7.75;;;4.05;;
63818;SDS011;49970;54.976;73.248;2023-04-01T13:06:23;12.75;;;5.35;;
63818;SDS011;49970;54.976;73.248;2023-04-01T13:12:23;9.10;;;6.13;;
63818;SDS011;49970;54.976;73.248;2023-04-01T13:20:53;12.10;;;7.13;;
63818;SDS011;49970;54.976;73.248;2023-04-01T13:23:38;15.93;;;6.20;;
63818;SDS011;49970;54.976;73.248;2023-04-01T13:29:29;19.52;;;6.65;;
63818;SDS011;49970;54.976;73.248;2023-04-01T13:37:49;19.65;;;7.82;;
63818;SDS011;49970;54.976;73.248;2023-04-01T13:43:01;26.75;;;9.85;;
63818;SDS011;49970;54.976;73.248;2023-04-01T13:53:40;39.05;;;16.90;;
63818;SDS011;49970;54.976;73.248;2023-04-01T13:56:42;42.60;;;15.48;;
63818;SDS011;49970;54.976;73.248;2023-04-01T14:02:14;39.42;;;15.75;;
63818;SDS011;49970;54.976;73.248;2023-04-01T14:19:11;51.60;;;21.35;;
63818;SDS011;49970;54.976;73.248;2023-04-01T14:22:05;84.60;;;24.33;;
63818;SDS011;49970;54.976;73.248;2023-04-01T14:30:11;40.22;;;18.83;;
63818;SDS011;49970;54.976;73.248;2023-04-01T14:33:21;47.10;;;19.75;;
63818;SDS011;49970;54.976;73.248;2023-04-01T14:39:00;40.60;;;15.30;;
63818;SDS011;49970;54.976;73.248;2023-04-01T14:50:27;62.78;;;23.52;;
63818;SDS011;49970;54.976;73.248;2023-04-01T14:53:23;58.38;;;21.33;;
63818;SDS011;49970;54.976;73.248;2023-04-01T14:55:59;55.28;;;23.50;;
63818;SDS011;49970;54.976;73.248;2023-04-01T14:58:45;48.08;;;18.50;;
63818;SDS011;49970;54.976;73.248;2023-04-01T15:06:55;50.20;;;20.95;;
63818;SDS011;49970;54.976;73.248;2023-04-01T15:09:58;53.40;;;20.90;;
63818;SDS011;49970;54.976;73.248;2023-04-01T15:13:13;51.38;;;18.90;;
63818;SDS011;49970;54.976;73.248;2023-04-01T15:27:25;45.67;;;19.98;;
63818;SDS011;49970;54.976;73.248;2023-04-01T15:30:45;40.65;;;19.23;;
63818;SDS011;49970;54.976;73.248;2023-04-01T15:36:18;47.10;;;16.15;;
63818;SDS011;49970;54.976;73.248;2023-04-01T15:39:02;37.53;;;17.48;;
63818;SDS011;49970;54.976;73.248;2023-04-01T15:50:17;33.38;;;14.25;;
63818;SDS011;49970;54.976;73.248;2023-04-01T15:52:49;27.05;;;10.30;;
63818;SDS011;49970;54.976;73.248;2023-04-01T16:01:09;30.35;;;11.23;;
63818;SDS011;49970;54.976;73.248;2023-04-01T16:10:28;22.98;;;9.20;;
63818;SDS011;49970;54.976;73.248;2023-04-01T16:16:19;26.13;;;8.65;;
63818;SDS011;49970;54.976;73.248;2023-04-01T16:22:34;14.80;;;7.32;;
63818;SDS011;49970;54.976;73.248;2023-04-01T16:27:54;17.50;;;7.45;;
63818;SDS011;49970;54.976;73.248;2023-04-01T16:33:46;18.50;;;8.23;;
63818;SDS011;49970;54.976;73.248;2023-04-01T16:39:09;23.08;;;7.88;;
63818;SDS011;49970;54.976;73.248;2023-04-01T16:44:46;16.02;;;8.77;;
63818;SDS011;49970;54.976;73.248;2023-04-01T16:47:21;13.48;;;7.45;;
63818;SDS011;49970;54.976;73.248;2023-04-01T16:50:14;13.23;;;6.88;;
63818;SDS011;49970;54.976;73.248;2023-04-01T16:58:25;24.35;;;9.77;;
63818;SDS011;49970;54.976;73.248;2023-04-01T17:00:58;27.98;;;10.65;;
63818;SDS011;49970;54.976;73.248;2023-04-01T17:03:44;32.58;;;10.70;;
63818;SDS011;49970;54.976;73.248;2023-04-01T17:06:23;35.70;;;11.57;;
63818;SDS011;49970;54.976;73.248;2023-04-01T17:18:55;33.17;;;14.05;;
63818;SDS011;49970;54.976;73.248;2023-04-01T17:21:21;31.80;;;14.27;;
63818;SDS011;49970;54.976;73.248;2023-04-01T17:26:51;28.48;;;13.07;;
63818;SDS011;49970;54.976;73.248;2023-04-01T17:35:19;41.22;;;17.08;;
63818;SDS011;49970;54.976;73.248;2023-04-01T17:40:36;51.83;;;17.88;;
63818;SDS011;49970;54.976;73.248;2023-04-01T17:43:29;46.42;;;17.20;;
63818;SDS011;49970;54.976;73.248;2023-04-01T17:46:28;45.88;;;17.15;;
63818;SDS011;49970;54.976;73.248;2023-04-01T17:52:00;30.08;;;14.95;;
63818;SDS011;49970;54.976;73.248;2023-04-01T17:54:56;43.22;;;15.80;;
63818;SDS011;49970;54.976;73.248;2023-04-01T17:57:46;40.47;;;15.23;;
63818;SDS011;49970;54.976;73.248;2023-04-01T18:03:04;31.45;;;12.88;;
63818;SDS011;49970;54.976;73.248;2023-04-01T18:06:33;23.95;;;12.32;;
63818;SDS011;49970;54.976;73.248;2023-04-01T18:23:14;18.50;;;11.13;;
63818;SDS011;49970;54.976;73.248;2023-04-01T18:26:02;39.55;;;12.15;;
63818;SDS011;49970;54.976;73.248;2023-04-01T18:28:47;25.50;;;10.40;;
63818;SDS011;49970;54.976;73.248;2023-04-01T18:31:24;19.83;;;10.02;;
63818;SDS011;49970;54.976;73.248;2023-04-01T18:34:07;20.63;;;9.65;;
63818;SDS011;49970;54.976;73.248;2023-04-01T18:36:41;31.52;;;10.63;;
63818;SDS011;49970;54.976;73.248;2023-04-01T18:39:23;22.33;;;11.07;;
63818;SDS011;49970;54.976;73.248;2023-04-01T18:42:06;22.50;;;11.18;;
63818;SDS011;49970;54.976;73.248;2023-04-01T18:56:28;41.42;;;16.73;;
63818;SDS011;49970;54.976;73.248;2023-04-01T19:02:08;26.00;;;10.38;;
63818;SDS011;49970;54.976;73.248;2023-04-01T19:05:02;19.45;;;9.43;;
63818;SDS011;49970;54.976;73.248;2023-04-01T19:07:56;22.52;;;9.90;;
63818;SDS011;49970;54.976;73.248;2023-04-01T19:13:27;28.73;;;13.13;;
63818;SDS011;49970;54.976;73.248;2023-04-01T19:16:14;26.73;;;11.52;;
63818;SDS011;49970;54.976;73.248;2023-04-01T19:18:51;24.60;;;10.25;;
63818;SDS011;49970;54.976;73.248;2023-04-01T19:21:58;26.90;;;11.88;;
63818;SDS011;49970;54.976;73.248;2023-04-01T19:24:49;29.88;;;13.55;;
63818;SDS011;49970;54.976;73.248;2023-04-01T19:27:35;32.67;;;13.43;;
63818;SDS011;49970;54.976;73.248;2023-04-01T19:36:09;20.95;;;8.48;;
63818;SDS011;49970;54.976;73.248;2023-04-01T19:41:50;25.27;;;12.25;;
63818;SDS011;49970;54.976;73.248;2023-04-01T19:47:22;28.95;;;13.77;;
63818;SDS011;49970;54.976;73.248;2023-04-01T19:53:05;17.65;;;7.78;;
63818;SDS011;49970;54.976;73.248;2023-04-01T19:56:13;17.90;;;7.13;;
63818;SDS011;49970;54.976;73.248;2023-04-01T20:01:15;25.67;;;12.82;;
63818;SDS011;49970;54.976;73.248;2023-04-01T20:04:01;32.70;;;14.10;;
63818;SDS011;49970;54.976;73.248;2023-04-01T20:09:48;35.47;;;12.00;;
63818;SDS011;49970;54.976;73.248;2023-04-01T20:15:36;14.35;;;6.90;;
63818;SDS011;49970;54.976;73.248;2023-04-01T20:18:13;13.88;;;6.47;;
63818;SDS011;49970;54.976;73.248;2023-04-01T20:21:05;24.27;;;11.57;;
63818;SDS011;49970;54.976;73.248;2023-04-01T20:26:44;45.03;;;20.65;;
63818;SDS011;49970;54.976;73.248;2023-04-01T20:29:38;31.40;;;14.10;;
63818;SDS011;49970;54.976;73.248;2023-04-01T20:35:08;20.98;;;7.57;;
63818;SDS011;49970;54.976;73.248;2023-04-01T20:38:18;15.63;;;7.07;;
63818;SDS011;49970;54.976;73.248;2023-04-01T20:40:51;22.73;;;12.60;;
63818;SDS011;49970;54.976;73.248;2023-04-01T20:43:58;22.58;;;11.40;;
63818;SDS011;49970;54.976;73.248;2023-04-01T20:50:15;34.90;;;11.35;;
63818;SDS011;49970;54.976;73.248;2023-04-01T20:52:41;18.08;;;8.40;;
63818;SDS011;49970;54.976;73.248;2023-04-01T20:58:24;29.08;;;10.75;;
63818;SDS011;49970;54.976;73.248;2023-04-01T21:14:34;22.67;;;10.25;;
63818;SDS011;49970;54.976;73.248;2023-04-01T21:17:12;15.93;;;9.10;;
63818;SDS011;49970;54.976;73.248;2023-04-01T21:20:29;40.67;;;19.55;;
63818;SDS011;49970;54.976;73.248;2023-04-01T21:23:17;42.95;;;20.92;;
63818;SDS011;49970;54.976;73.248;2023-04-01T21:31:45;26.05;;;9.57;;
63818;SDS011;49970;54.976;73.248;2023-04-01T21:40:11;23.75;;;10.93;;
63818;SDS011;49970;54.976;73.248;2023-04-01T21:57:48;20.52;;;9.48;;
63818;SDS011;49970;54.976;73.248;2023-04-01T22:00:38;31.75;;;11.82;;
63818;SDS011;49970;54.976;73.248;2023-04-01T22:06:17;30.48;;;10.82;;
63818;SDS011;49970;54.976;73.248;2023-04-01T22:17:55;20.90;;;10.85;;
63818;SDS011;49970;54.976;73.248;2023-04-01T22:20:36;48.67;;;13.60;;
63818;SDS011;49970;54.976;73.248;2023-04-01T22:23:20;56.75;;;14.35;;
63818;SDS011;49970;54.976;73.248;2023-04-01T22:29:22;14.68;;;6.53;;
63818;SDS011;49970;54.976;73.248;2023-04-01T22:31:55;19.55;;;8.82;;
63818;SDS011;49970;54.976;73.248;2023-04-01T22:35:17;19.48;;;11.98;;
63818;SDS011;49970;54.976;73.248;2023-04-01T22:43:19;28.50;;;11.02;;
63818;SDS011;49970;54.976;73.248;2023-04-01T22:52:04;14.05;;;6.13;;
63818;SDS011;49970;54.976;73.248;2023-04-01T22:54:50;6.90;;;4.93;;
63818;SDS011;49970;54.976;73.248;2023-04-01T22:57:36;21.77;;;8.27;;
63818;SDS011;49970;54.976;73.248;2023-04-01T23:00:52;20.40;;;7.82;;
63818;SDS011;49970;54.976;73.248;2023-04-01T23:03:30;23.10;;;8.13;;
63818;SDS011;49970;54.976;73.248;2023-04-01T23:06:09;27.33;;;10.00;;
63818;SDS011;49970;54.976;73.248;2023-04-01T23:08:53;21.40;;;11.77;;
63818;SDS011;49970;54.976;73.248;2023-04-01T23:11:47;22.38;;;11.55;;
63818;SDS011;49970;54.976;73.248;2023-04-01T23:14:29;22.88;;;13.73;;
63818;SDS011;49970;54.976;73.248;2023-04-01T23:20:21;46.88;;;20.05;;
63818;SDS011;49970;54.976;73.248;2023-04-01T23:23:02;56.60;;;26.23;;
63818;SDS011;49970;54.976;73.248;2023-04-01T23:30:57;95.30;;;37.10;;
63818;SDS011;49970;54.976;73.248;2023-04-01T23:33:29;100.03;;;29.80;;
63818;SDS011;49970;54.976;73.248;2023-04-01T23:36:17;91.60;;;35.47;;
63818;SDS011;49970;54.976;73.248;2023-04-01T23:38:51;79.75;;;36.60;;
63818;SDS011;49970;54.976;73.248;2023-04-01T23:41:23;71.40;;;34.28;;
63818;SDS011;49970;54.976;73.248;2023-04-01T23:44:05;75.65;;;27.70;;
63818;SDS011;49970;54.976;73.248;2023-04-01T23:46:37;60.08;;;20.70;;
63818;SDS011;49970;54.976;73.248;2023-04-01T23:49:19;40.88;;;17.95;;
63818;SDS011;49970;54.976;73.248;2023-04-01T23:51:56;58.83;;;27.55;;
63818;SDS011;49970;54.976;73.248;2023-04-01T23:54:34;65.43;;;26.67;;
63818;SDS011;49970;54.976;73.248;2023-04-01T23:57:16;45.20;;;19.35;;
